Bend, OR (97707)

6:04 PM PDT on September 30, 2014 (GMT -0700)
Beaver Nation | Change Station
CLOSE
Current Station
Personal Weather Station
Location: Sunriver, OR
Elevation: 4260 ft
Nearby Weather Stations

Elev 4260 ft 43.89 °N, 121.43 °W | Updated 12 seconds ago

Clear
Clear
51.6 °F
Feels Like 51.6 °F
N
0.0
Wind Variable Wind from NW
Gusts 3.0 mph

Today
High -- | Low -- °F
--% Chance of Precip.
Yesterday
High -- | Low -- °F
Precip. -- in
7:02 AM 6:48 PM
Waxing Crescent, 42% visible
Pressure 30.11 in
Visibility 10.0 miles
Clouds Clear
Dew Point 35 °F
Humidity 53%
Rainfall 0.00 in
Snow Depth 0 in , 0 in , 0 in
UV 1 out of 12
Pollen .70 out of 12
Air Quality Not available.
Flu Activity Not available.
METAR KBDN 010015Z AUTO 32013G18KT 10SM CLR 14/03 A3011 RMK AO2

More Conditions Fewer Conditions

Pressure 30.11 in
Visibility 10.0 miles
Clouds Clear
Dew Point 35 °F
Humidity 53%
Rainfall 0.00 in
Snow Depth 0 in , 0 in , 0 in
UV 1 out of 12
Pollen .70 out of 12
Air Quality Not available.
Flu Activity Not available.
METAR KBDN 010015Z AUTO 32013G18KT 10SM CLR 14/03 A3011 RMK AO2

More Conditions Fewer Conditions

10-Day Weather Forecast

Almanac

Astronomy

Sep. 30, 2014 Rise Set
Actual Time 7:02 AM PDT 6:48 PM PDT
Civil Twilight 6:33 AM PDT 7:17 PM PDT
Nautical Twilight 6:00 AM PDT 7:50 PM PDT
Astronomical Twilight 5:26 AM PDT 8:24 PM PDT
Moon 1:24 PM PDT (9/30) 11:15 PM PDT (9/30)
Length of Visible Light 12h 43m
Length of Day
11h 45m
Tomorrow will be 3m 0s shorter.
Waxing Crescent, 42% of the Moon is Illuminated
Today
Waxing Crescent
Oct 1
First Quarter
Oct 8
Full
Oct 15
Last Quarter
Oct 23
New

Today's Extremes

State Highs State Lows

Community

WunderPhotos

Upload Photos

1,757,805 photos uploaded!

Nearby

Snow Depth

Station Depth Elevation
Mt. Howard 0 in 7910 ft
Bowman Springs 0 in 4580 ft
Arbuckle Mountain 0 in 5400 ft
Greenpoint 0 in 3200 ft
Irish Taylor 0 in 5500 ft

Earthquake Activity

City Distance Mag. Time & Date
No recent earthquake activity has been reported nearby.
Minimum magnitude displayed is 2.5.

Coastal Water Temperatures

Place Temperature
No Stations Reporting

Nearby Weather Stations